Time;durP1;ratioP1;P1;durP2;ratioP2;P2;SDS_P1;SDS_P2;PMS_P1;PMS_P2;Temp;Humidity;BMP_temperature;BMP_pressure;BME280_temperature;BME280_humidity;BME280_pressure;Samples;Min_cycle;Max_cycle;Signal;HPM_P1;HPM_P2
2023/03/23 00:02:39;;;;;;;;;;;9.33;114.09;;;;;;2665647;76;20406;-91
2023/03/23 00:06:07;;;;;;;;;;;9.34;114.14;;;;;;2667129;76;20437;-91
2023/03/23 00:09:40;;;;;;;;;;;9.33;114.29;;;;;;2665138;76;20447;-91
2023/03/23 00:13:07;;;;;;;;;;;9.33;114.38;;;;;;2666265;76;20457;-91
2023/03/23 00:16:37;;;;;;;;;;;9.30;114.48;;;;;;2666709;76;20776;-91
2023/03/23 00:20:05;;;;;;;;;;;9.32;114.83;;;;;;2665681;76;20813;-91
2023/03/23 00:23:33;;;;;;;;;;;9.37;114.99;;;;;;2665213;76;20438;-91
2023/03/23 00:27:03;;;;;;;;;;;9.41;115.11;;;;;;2667290;76;20430;-90
2023/03/23 00:30:37;;;;;;;;;;;9.49;115.22;;;;;;2668898;76;20418;-90
2023/03/23 00:34:05;;;;;;;;;;;9.48;115.42;;;;;;2668845;76;20431;-90
2023/03/23 00:37:35;;;;;;;;;;;9.56;115.74;;;;;;2667431;76;20446;-89
2023/03/23 00:41:03;;;;;;;;;;;9.63;116.08;;;;;;2666732;76;20449;-90
2023/03/23 00:44:31;;;;;;;;;;;9.67;116.31;;;;;;2667943;76;20417;-91
2023/03/23 00:48:01;;;;;;;;;;;9.74;117.01;;;;;;2666316;76;20417;-90
2023/03/23 00:51:29;;;;;;;;;;;9.79;117.58;;;;;;2668196;76;20430;-90
2023/03/23 00:54:57;;;;;;;;;;;9.83;117.63;;;;;;2668345;76;20423;-91
2023/03/23 00:58:25;;;;;;;;;;;9.88;117.83;;;;;;2666857;76;20432;-91
2023/03/23 01:01:53;;;;;;;;;;;9.91;117.82;;;;;;2666194;76;20479;-91
2023/03/23 01:05:21;;;;;;;;;;;9.91;117.56;;;;;;2665997;76;20421;-91
2023/03/23 01:08:49;;;;;;;;;;;9.90;118.09;;;;;;2669293;76;20462;-92
2023/03/23 01:12:18;;;;;;;;;;;9.94;118.91;;;;;;2666966;76;20456;-90
2023/03/23 01:15:46;;;;;;;;;;;9.95;-4.95;;;;;;2667067;76;20937;-91
2023/03/23 01:19:15;;;;;;;;;;;10.06;-5.52;;;;;;2665584;76;21001;-91
2023/03/23 01:22:43;;;;;;;;;;;10.07;-4.88;;;;;;2667290;76;20435;-91
2023/03/23 01:26:11;;;;;;;;;;;10.15;-5.05;;;;;;2666015;76;20416;-92
2023/03/23 01:29:39;;;;;;;;;;;10.15;-4.27;;;;;;2667295;76;20799;-91
2023/03/23 01:33:07;;;;;;;;;;;10.18;-4.84;;;;;;2666340;76;20448;-91
2023/03/23 01:36:36;;;;;;;;;;;10.08;-3.79;;;;;;2666266;76;20441;-91
2023/03/23 01:40:04;;;;;;;;;;;10.10;-3.94;;;;;;2667279;76;20782;-91
2023/03/23 01:43:32;;;;;;;;;;;10.07;-4.51;;;;;;2665394;76;20887;-91
2023/03/23 01:47:00;;;;;;;;;;;10.00;-4.70;;;;;;2665886;76;21246;-91
2023/03/23 01:50:29;;;;;;;;;;;9.96;-4.95;;;;;;2666162;76;21456;-91
2023/03/23 01:53:57;;;;;;;;;;;9.90;-4.76;;;;;;2668848;76;20375;-91
2023/03/23 01:57:31;;;;;;;;;;;9.81;-4.52;;;;;;2666212;76;20633;-91
2023/03/23 02:00:55;;;;;;;;;;;9.75;-4.57;;;;;;2665820;76;20437;-91
2023/03/23 02:04:23;;;;;;;;;;;9.69;-4.76;;;;;;2665763;76;20409;-91
2023/03/23 02:07:51;;;;;;;;;;;9.66;-4.90;;;;;;2667619;76;20471;-91
2023/03/23 02:11:19;;;;;;;;;;;9.63;-4.99;;;;;;2668081;76;20483;-89
2023/03/23 02:14:47;;;;;;;;;;;9.64;-4.99;;;;;;2667200;76;20433;-90
2023/03/23 02:18:15;;;;;;;;;;;9.62;-4.88;;;;;;2666800;76;20469;-90
2023/03/23 02:21:43;;;;;;;;;;;9.69;-4.76;;;;;;2668141;76;20463;-91
2023/03/23 02:25:12;;;;;;;;;;;9.75;-4.83;;;;;;2666939;76;20876;-91
2023/03/23 02:28:40;;;;;;;;;;;9.78;-4.82;;;;;;2668427;76;20449;-91
2023/03/23 02:32:08;;;;;;;;;;;9.77;-4.47;;;;;;2667944;76;20426;-91
2023/03/23 02:35:36;;;;;;;;;;;9.81;-4.37;;;;;;2668341;76;20407;-91
2023/03/23 02:39:05;;;;;;;;;;;9.78;-3.34;;;;;;2667857;76;20420;-90
2023/03/23 02:42:35;;;;;;;;;;;9.77;-3.44;;;;;;2666555;76;20319;-92
2023/03/23 02:46:06;;;;;;;;;;;9.78;-3.73;;;;;;2667341;76;20428;-91
2023/03/23 02:49:33;;;;;;;;;;;9.77;-3.99;;;;;;2668201;76;20409;-92
2023/03/23 02:53:01;;;;;;;;;;;9.74;-4.01;;;;;;2665970;76;20432;-92
2023/03/23 02:56:29;;;;;;;;;;;9.79;-3.97;;;;;;2666716;76;20304;-91
2023/03/23 02:59:57;;;;;;;;;;;9.75;-4.04;;;;;;2666619;76;20312;-92
2023/03/23 03:03:25;;;;;;;;;;;9.69;-3.58;;;;;;2665473;76;20809;-91
2023/03/23 03:06:54;;;;;;;;;;;9.64;-3.76;;;;;;2666422;76;20416;-92
2023/03/23 03:10:22;;;;;;;;;;;9.63;-3.92;;;;;;2668374;76;20459;-91
2023/03/23 03:13:51;;;;;;;;;;;9.62;-3.96;;;;;;2666215;76;20798;-89
2023/03/23 03:17:19;;;;;;;;;;;9.61;-3.93;;;;;;2665131;76;20336;-89
2023/03/23 03:20:47;;;;;;;;;;;9.61;-3.88;;;;;;2666603;76;20502;-88
2023/03/23 03:24:15;;;;;;;;;;;9.63;-3.71;;;;;;2666679;76;20366;-90
2023/03/23 03:27:43;;;;;;;;;;;9.71;-3.66;;;;;;2665014;76;20458;-89
2023/03/23 03:31:12;;;;;;;;;;;9.77;-3.64;;;;;;2664560;76;20809;-89
2023/03/23 03:34:40;;;;;;;;;;;9.77;-3.70;;;;;;2664777;76;20481;-88
2023/03/23 03:38:08;;;;;;;;;;;9.75;-3.65;;;;;;2665168;76;20509;-89
2023/03/23 03:41:36;;;;;;;;;;;9.76;-3.60;;;;;;2666756;76;20597;-89
2023/03/23 03:45:07;;;;;;;;;;;9.76;-3.56;;;;;;2666460;76;20370;-90
2023/03/23 03:48:35;;;;;;;;;;;9.77;-3.55;;;;;;2666161;76;20925;-89
2023/03/23 03:52:03;;;;;;;;;;;9.71;-3.66;;;;;;2665124;76;20462;-89
2023/03/23 03:55:35;;;;;;;;;;;9.69;-3.60;;;;;;2665508;76;20457;-89
2023/03/23 03:59:02;;;;;;;;;;;9.67;-3.51;;;;;;2666931;76;20913;-87
2023/03/23 04:02:30;;;;;;;;;;;9.68;-3.38;;;;;;2666194;76;20444;-88
2023/03/23 04:05:59;;;;;;;;;;;9.71;-3.00;;;;;;2664692;76;20504;-88
2023/03/23 04:09:28;;;;;;;;;;;9.75;-2.48;;;;;;2663794;76;20606;-90
2023/03/23 04:12:56;;;;;;;;;;;9.84;-2.63;;;;;;2664232;76;20443;-89
2023/03/23 04:16:26;;;;;;;;;;;9.91;-2.75;;;;;;2668064;76;20488;-89
2023/03/23 04:19:56;;;;;;;;;;;9.98;-2.74;;;;;;2666815;76;20507;-90
2023/03/23 04:23:23;;;;;;;;;;;9.99;-2.77;;;;;;2666454;76;20425;-89
2023/03/23 04:26:52;;;;;;;;;;;10.00;-2.75;;;;;;2665916;76;20465;-89
2023/03/23 04:30:21;;;;;;;;;;;10.00;-2.74;;;;;;2666460;76;20413;-89
2023/03/23 04:33:52;;;;;;;;;;;10.06;-2.77;;;;;;2665955;76;20489;-89
2023/03/23 04:37:19;;;;;;;;;;;10.08;-2.77;;;;;;2664630;76;20920;-89
2023/03/23 04:40:54;;;;;;;;;;;10.04;-2.73;;;;;;2664707;76;20435;-89
2023/03/23 04:44:21;;;;;;;;;;;10.03;-2.62;;;;;;2666971;76;20300;-90
2023/03/23 04:47:53;;;;;;;;;;;10.05;-2.56;;;;;;2666377;76;20399;-89
2023/03/23 04:51:19;;;;;;;;;;;10.09;-2.54;;;;;;2666768;76;20503;-90
2023/03/23 04:54:47;;;;;;;;;;;10.09;-2.41;;;;;;2664788;76;20426;-88
2023/03/23 04:58:15;;;;;;;;;;;10.12;-2.15;;;;;;2666022;76;20441;-90
2023/03/23 05:01:45;;;;;;;;;;;10.19;-1.92;;;;;;2666484;76;20485;-89
2023/03/23 05:05:13;;;;;;;;;;;10.20;-1.96;;;;;;2666895;76;20464;-89
2023/03/23 05:08:47;;;;;;;;;;;10.19;-1.25;;;;;;2667217;76;20450;-89
2023/03/23 05:12:16;;;;;;;;;;;10.25;-1.40;;;;;;2665305;76;20457;-90
2023/03/23 05:15:44;;;;;;;;;;;10.29;-1.57;;;;;;2666318;76;20509;-90
2023/03/23 05:19:12;;;;;;;;;;;10.34;-1.39;;;;;;2667021;76;20464;-89
2023/03/23 05:22:44;;;;;;;;;;;10.39;-1.47;;;;;;2664371;76;20490;-88
2023/03/23 05:26:12;;;;;;;;;;;10.42;-1.41;;;;;;2664620;76;20492;-89
2023/03/23 05:29:40;;;;;;;;;;;10.50;-1.31;;;;;;2666299;76;20484;-89
2023/03/23 05:33:08;;;;;;;;;;;10.53;-1.22;;;;;;2664223;76;20434;-89
2023/03/23 05:36:36;;;;;;;;;;;10.63;-1.22;;;;;;2665193;76;20404;-89
2023/03/23 05:40:06;;;;;;;;;;;10.67;-1.04;;;;;;2667301;76;20901;-89
2023/03/23 05:43:34;;;;;;;;;;;10.80;-1.00;;;;;;2664986;76;20433;-88
2023/03/23 05:47:03;;;;;;;;;;;10.90;-0.94;;;;;;2666991;76;20551;-88
2023/03/23 05:50:31;;;;;;;;;;;11.01;-1.00;;;;;;2668023;76;20425;-89
2023/03/23 05:54:01;;;;;;;;;;;11.13;-1.13;;;;;;2668603;76;20460;-89
2023/03/23 05:57:29;;;;;;;;;;;11.25;-1.29;;;;;;2668844;76;20457;-90
2023/03/23 06:00:57;;;;;;;;;;;11.31;-1.27;;;;;;2668981;76;20479;-89
2023/03/23 06:04:26;;;;;;;;;;;11.45;-1.35;;;;;;2666388;76;20454;-88
2023/03/23 06:07:55;;;;;;;;;;;11.53;-1.51;;;;;;2668262;76;20482;-89
2023/03/23 06:11:26;;;;;;;;;;;11.62;-1.56;;;;;;2668081;76;20450;-89
2023/03/23 06:14:54;;;;;;;;;;;11.76;-1.69;;;;;;2668299;76;20466;-89
2023/03/23 06:18:23;;;;;;;;;;;11.91;-1.75;;;;;;2666881;76;20486;-89
2023/03/23 06:21:51;;;;;;;;;;;11.99;-1.99;;;;;;2667698;76;20432;-90
2023/03/23 06:25:19;;;;;;;;;;;12.18;-2.00;;;;;;2668924;76;20718;-89
2023/03/23 06:28:47;;;;;;;;;;;12.29;-2.03;;;;;;2668431;76;20432;-89
2023/03/23 06:32:15;;;;;;;;;;;12.40;-2.13;;;;;;2668141;76;20741;-90
2023/03/23 06:35:48;;;;;;;;;;;12.48;-2.15;;;;;;2667931;76;20496;-90
2023/03/23 06:39:18;;;;;;;;;;;12.52;-2.25;;;;;;2667260;76;20436;-89
2023/03/23 06:42:46;;;;;;;;;;;12.61;-2.21;;;;;;2667555;76;20450;-90
2023/03/23 06:46:15;;;;;;;;;;;12.77;-2.17;;;;;;2668457;76;20436;-89
2023/03/23 06:49:43;;;;;;;;;;;12.95;-2.42;;;;;;2667813;76;20462;-89
2023/03/23 06:53:11;;;;;;;;;;;13.16;-2.69;;;;;;2666728;76;20475;-90
2023/03/23 06:56:39;;;;;;;;;;;13.43;-2.86;;;;;;2666953;76;20490;-90
2023/03/23 07:00:13;;;;;;;;;;;13.79;-3.28;;;;;;2668662;76;20450;-90
2023/03/23 07:03:42;;;;;;;;;;;14.13;-3.78;;;;;;2668566;76;20448;-90
2023/03/23 07:07:12;;;;;;;;;;;14.45;-3.86;;;;;;2667114;76;20446;-91
2023/03/23 07:10:40;;;;;;;;;;;14.74;-4.22;;;;;;2665999;76;20919;-89
2023/03/23 07:14:08;;;;;;;;;;;15.09;-4.48;;;;;;2669081;76;20908;-90
2023/03/23 07:17:37;;;;;;;;;;;15.52;-5.05;;;;;;2666489;76;20676;-90
2023/03/23 07:21:05;;;;;;;;;;;15.97;-5.37;;;;;;2671044;76;20406;-90
2023/03/23 07:24:34;;;;;;;;;;;16.24;-5.61;;;;;;2671445;76;20420;-89
2023/03/23 07:28:02;;;;;;;;;;;16.31;-5.81;;;;;;2668911;76;21061;-89
2023/03/23 07:31:35;;;;;;;;;;;16.49;-5.66;;;;;;2668760;76;21010;-89
2023/03/23 07:35:00;;;;;;;;;;;16.73;-5.83;;;;;;2668157;76;20441;-89
2023/03/23 07:38:29;;;;;;;;;;;16.98;118.76;;;;;;2668099;76;20442;-90
2023/03/23 07:41:57;;;;;;;;;;;17.07;118.27;;;;;;2667729;76;20596;-89
2023/03/23 07:45:26;;;;;;;;;;;17.10;118.10;;;;;;2666518;76;20459;-90
2023/03/23 07:48:54;;;;;;;;;;;17.13;117.80;;;;;;2666746;76;22114;-90
2023/03/23 07:52:23;;;;;;;;;;;17.38;117.72;;;;;;2667322;76;20632;-89
2023/03/23 07:55:51;;;;;;;;;;;17.54;116.66;;;;;;2668713;76;20879;-90
2023/03/23 07:59:20;;;;;;;;;;;17.73;116.84;;;;;;2667372;76;20469;-90
2023/03/23 08:02:48;;;;;;;;;;;17.76;115.93;;;;;;2667934;76;20429;-90
2023/03/23 08:06:16;;;;;;;;;;;17.83;115.88;;;;;;2667680;76;20454;-90
2023/03/23 08:09:47;;;;;;;;;;;18.06;116.08;;;;;;2666388;76;20491;-90
2023/03/23 08:13:15;;;;;;;;;;;18.28;115.74;;;;;;2664193;76;20769;-88
2023/03/23 08:16:48;;;;;;;;;;;18.63;115.40;;;;;;2667744;76;20900;-90
2023/03/23 08:20:13;;;;;;;;;;;18.87;114.70;;;;;;2667307;76;20392;-89
2023/03/23 08:23:41;;;;;;;;;;;18.86;114.66;;;;;;2665581;76;20978;-89
2023/03/23 08:27:12;;;;;;;;;;;18.79;115.02;;;;;;2665213;76;20437;-90
2023/03/23 08:30:43;;;;;;;;;;;18.97;115.03;;;;;;2667182;76;20896;-90
2023/03/23 08:34:10;;;;;;;;;;;19.36;114.70;;;;;;2667040;76;20467;-90
2023/03/23 08:37:38;;;;;;;;;;;19.72;114.51;;;;;;2667977;76;20428;-90
2023/03/23 08:41:08;;;;;;;;;;;19.89;114.20;;;;;;2668353;76;20866;-90
2023/03/23 08:44:37;;;;;;;;;;;20.05;114.17;;;;;;2666463;76;21603;-90
2023/03/23 08:48:07;;;;;;;;;;;20.28;114.18;;;;;;2668716;76;20404;-90
2023/03/23 08:51:35;;;;;;;;;;;20.41;113.92;;;;;;2666192;76;20475;-89
2023/03/23 08:55:04;;;;;;;;;;;20.50;113.60;;;;;;2667778;76;20415;-90
2023/03/23 08:58:33;;;;;;;;;;;20.51;112.98;;;;;;2667676;76;20424;-90
2023/03/23 09:02:01;;;;;;;;;;;20.72;112.05;;;;;;2668125;76;20435;-90
2023/03/23 09:05:29;;;;;;;;;;;21.06;111.86;;;;;;2668489;76;21033;-90
2023/03/23 09:09:00;;;;;;;;;;;21.02;108.60;;;;;;2666145;76;20416;-90
2023/03/23 09:12:27;;;;;;;;;;;21.24;108.85;;;;;;2667606;76;20460;-91
2023/03/23 09:15:55;;;;;;;;;;;21.52;108.51;;;;;;2667192;76;20419;-89
2023/03/23 09:19:23;;;;;;;;;;;22.09;107.73;;;;;;2667358;76;20456;-90
2023/03/23 09:22:51;;;;;;;;;;;22.49;106.32;;;;;;2667345;76;20816;-90
2023/03/23 09:26:20;;;;;;;;;;;22.52;103.43;;;;;;2666562;76;21186;-90
2023/03/23 09:29:48;;;;;;;;;;;21.97;99.50;;;;;;2665861;76;20532;-91
2023/03/23 09:33:16;;;;;;;;;;;22.09;99.47;;;;;;2667364;76;20311;-90
2023/03/23 09:36:45;;;;;;;;;;;22.40;100.45;;;;;;2668346;76;20427;-89
2023/03/23 09:40:14;;;;;;;;;;;22.58;100.43;;;;;;2671612;76;20437;-90
2023/03/23 09:43:42;;;;;;;;;;;22.62;100.40;;;;;;2670963;76;20419;-90
2023/03/23 09:47:10;;;;;;;;;;;22.68;99.48;;;;;;2669859;76;20449;-90
2023/03/23 09:50:38;;;;;;;;;;;22.75;98.54;;;;;;2670562;76;20549;-91
2023/03/23 09:54:07;;;;;;;;;;;22.73;96.75;;;;;;2670387;76;20976;-90
2023/03/23 09:57:36;;;;;;;;;;;22.99;95.86;;;;;;2669739;76;20424;-89
2023/03/23 10:01:04;;;;;;;;;;;22.27;94.16;;;;;;2670289;76;20441;-90
2023/03/23 10:04:32;;;;;;;;;;;22.16;94.37;;;;;;2669845;76;20402;-90
2023/03/23 10:08:00;;;;;;;;;;;22.14;94.32;;;;;;2670074;76;20313;-90
2023/03/23 10:11:28;;;;;;;;;;;21.67;93.71;;;;;;2671283;76;20428;-88
2023/03/23 10:14:58;;;;;;;;;;;22.19;94.33;;;;;;2669819;76;20294;-91
2023/03/23 10:18:26;;;;;;;;;;;22.37;94.20;;;;;;2670722;76;20338;-90
2023/03/23 10:21:54;;;;;;;;;;;21.66;93.39;;;;;;2670771;76;20757;-90
2023/03/23 10:25:23;;;;;;;;;;;21.62;94.31;;;;;;2670714;76;20502;-89
2023/03/23 10:28:52;;;;;;;;;;;21.62;94.82;;;;;;2670290;76;21099;-90
2023/03/23 10:32:21;;;;;;;;;;;21.14;94.27;;;;;;2670294;76;20418;-89
2023/03/23 10:35:49;;;;;;;;;;;21.11;95.06;;;;;;2671059;76;20777;-91
2023/03/23 10:39:17;;;;;;;;;;;20.95;94.88;;;;;;2670034;76;20453;-89
2023/03/23 10:42:46;;;;;;;;;;;21.37;95.62;;;;;;2670641;76;20300;-88
2023/03/23 10:46:14;;;;;;;;;;;21.44;95.37;;;;;;2670284;76;20420;-90
2023/03/23 10:49:42;;;;;;;;;;;21.59;95.23;;;;;;2670070;76;20435;-90
2023/03/23 10:53:10;;;;;;;;;;;21.62;95.05;;;;;;2670049;76;20436;-89
2023/03/23 10:56:38;;;;;;;;;;;21.30;94.70;;;;;;2669780;76;20442;-89
2023/03/23 11:00:08;;;;;;;;;;;21.35;95.14;;;;;;2670720;76;20415;-90
2023/03/23 11:03:36;;;;;;;;;;;21.13;94.93;;;;;;2669106;76;21082;-88
2023/03/23 11:07:05;;;;;;;;;;;21.19;95.12;;;;;;2669751;76;20440;-90
2023/03/23 11:10:33;;;;;;;;;;;20.88;95.01;;;;;;2670785;76;20424;-90
2023/03/23 11:14:02;;;;;;;;;;;21.11;95.60;;;;;;2670320;76;20727;-90
2023/03/23 11:17:30;;;;;;;;;;;21.46;95.91;;;;;;2670345;76;21122;-90
2023/03/23 11:20:58;;;;;;;;;;;21.74;95.80;;;;;;2670119;76;20419;-90
2023/03/23 11:24:26;;;;;;;;;;;22.17;95.18;;;;;;2670194;76;20412;-90
2023/03/23 11:27:55;;;;;;;;;;;22.95;94.75;;;;;;2669940;76;20398;-88
2023/03/23 11:31:23;;;;;;;;;;;23.21;94.50;;;;;;2670329;76;20415;-90
2023/03/23 11:34:51;;;;;;;;;;;23.30;94.54;;;;;;2670660;76;20424;-89
2023/03/23 11:38:21;;;;;;;;;;;22.61;93.57;;;;;;2669403;76;20436;-90
2023/03/23 11:41:49;;;;;;;;;;;21.97;93.63;;;;;;2670070;76;20419;-89
2023/03/23 11:45:17;;;;;;;;;;;22.64;93.60;;;;;;2670227;76;20969;-90
2023/03/23 11:48:46;;;;;;;;;;;22.78;92.69;;;;;;2670546;76;21358;-90
2023/03/23 11:52:14;;;;;;;;;;;23.37;92.75;;;;;;2670467;76;20446;-90
2023/03/23 11:55:43;;;;;;;;;;;23.57;91.72;;;;;;2670326;76;20430;-89
2023/03/23 11:59:12;;;;;;;;;;;23.24;89.86;;;;;;2670189;76;20423;-88
2023/03/23 12:02:41;;;;;;;;;;;22.42;89.32;;;;;;2670857;76;21171;-88
2023/03/23 12:06:09;;;;;;;;;;;23.12;89.34;;;;;;2669926;76;20741;-90
2023/03/23 12:09:37;;;;;;;;;;;22.95;89.08;;;;;;2669300;76;20433;-90
2023/03/23 12:13:06;;;;;;;;;;;23.02;88.67;;;;;;2666297;76;20410;-88
2023/03/23 12:16:34;;;;;;;;;;;23.30;89.15;;;;;;2669631;76;20425;-89
2023/03/23 12:20:09;;;;;;;;;;;23.20;88.85;;;;;;2670062;76;20436;-90
2023/03/23 12:23:32;;;;;;;;;;;22.73;89.41;;;;;;2668514;76;20459;-90
2023/03/23 12:27:00;;;;;;;;;;;22.81;89.52;;;;;;2670039;76;20446;-88
2023/03/23 12:30:28;;;;;;;;;;;22.68;89.76;;;;;;2670869;76;20320;-90
2023/03/23 12:33:56;;;;;;;;;;;21.87;90.47;;;;;;2671020;76;20423;-90
2023/03/23 12:37:24;;;;;;;;;;;21.70;92.19;;;;;;2669182;76;20348;-88
2023/03/23 12:40:53;;;;;;;;;;;21.95;91.75;;;;;;2669477;76;20465;-89
2023/03/23 12:44:21;;;;;;;;;;;21.75;91.68;;;;;;2670381;76;20411;-88
2023/03/23 12:47:51;;;;;;;;;;;21.54;92.34;;;;;;2668377;76;20445;-89
2023/03/23 12:51:19;;;;;;;;;;;21.54;92.88;;;;;;2669989;76;20457;-89
2023/03/23 12:54:51;;;;;;;;;;;21.16;93.46;;;;;;2669347;76;20933;-89
2023/03/23 12:58:19;;;;;;;;;;;21.09;94.58;;;;;;2670218;76;20475;-89
2023/03/23 13:01:47;;;;;;;;;;;21.05;94.55;;;;;;2670237;76;20442;-90
2023/03/23 13:05:15;;;;;;;;;;;21.20;94.16;;;;;;2670059;76;20420;-90
2023/03/23 13:08:43;;;;;;;;;;;21.47;93.95;;;;;;2669323;76;20315;-90
2023/03/23 13:12:11;;;;;;;;;;;21.22;93.69;;;;;;2669288;76;20424;-90
2023/03/23 13:15:39;;;;;;;;;;;21.04;94.05;;;;;;2669670;76;20436;-88
2023/03/23 13:19:08;;;;;;;;;;;21.21;95.49;;;;;;2669155;76;20958;-89
2023/03/23 13:22:36;;;;;;;;;;;21.21;95.26;;;;;;2669138;76;20954;-90
2023/03/23 13:26:04;;;;;;;;;;;21.07;95.00;;;;;;2670450;76;20365;-90
2023/03/23 13:29:33;;;;;;;;;;;20.87;94.46;;;;;;2670068;76;20974;-89
2023/03/23 13:33:01;;;;;;;;;;;20.79;94.72;;;;;;2670334;76;20443;-89
2023/03/23 13:36:29;;;;;;;;;;;20.49;95.29;;;;;;2669354;76;20440;-88
2023/03/23 13:39:58;;;;;;;;;;;20.41;95.33;;;;;;2669904;76;20425;-89
2023/03/23 13:43:27;;;;;;;;;;;20.78;95.88;;;;;;2670181;76;20460;-89
2023/03/23 13:46:55;;;;;;;;;;;21.29;95.29;;;;;;2671253;76;20317;-89
2023/03/23 13:50:24;;;;;;;;;;;21.10;94.94;;;;;;2669865;76;20870;-88
2023/03/23 13:53:53;;;;;;;;;;;20.83;95.28;;;;;;2670963;76;20440;-89
2023/03/23 13:57:21;;;;;;;;;;;20.60;95.91;;;;;;2669928;76;20551;-89
2023/03/23 14:00:49;;;;;;;;;;;20.55;96.23;;;;;;2666224;76;20612;-89
2023/03/23 14:04:17;;;;;;;;;;;20.46;95.78;;;;;;2669860;76;20649;-91
2023/03/23 14:07:47;;;;;;;;;;;20.26;96.55;;;;;;2670129;76;20309;-91
2023/03/23 14:11:15;;;;;;;;;;;20.17;96.40;;;;;;2669896;76;20311;-91
2023/03/23 14:14:46;;;;;;;;;;;20.54;95.32;;;;;;2669449;76;20439;-91
2023/03/23 14:18:16;;;;;;;;;;;20.18;95.24;;;;;;2669180;76;21031;-90
2023/03/23 14:21:44;;;;;;;;;;;20.35;95.68;;;;;;2670456;76;20408;-89
2023/03/23 14:25:12;;;;;;;;;;;20.72;95.72;;;;;;2670955;76;20309;-88
2023/03/23 14:28:41;;;;;;;;;;;21.00;95.46;;;;;;2670217;76;20343;-87
2023/03/23 14:32:09;;;;;;;;;;;20.64;95.25;;;;;;2670443;76;20468;-89
2023/03/23 14:35:38;;;;;;;;;;;20.25;95.55;;;;;;2670906;76;20463;-90
2023/03/23 14:39:06;;;;;;;;;;;19.89;96.45;;;;;;2669846;76;20488;-90
2023/03/23 14:42:34;;;;;;;;;;;19.63;97.70;;;;;;2666805;76;20457;-89
2023/03/23 14:46:03;;;;;;;;;;;19.35;98.40;;;;;;2670048;76;20421;-89
2023/03/23 14:49:31;;;;;;;;;;;19.18;99.13;;;;;;2669210;76;20894;-91
2023/03/23 14:53:02;;;;;;;;;;;19.29;98.99;;;;;;2669903;76;20459;-88
2023/03/23 14:56:33;;;;;;;;;;;19.37;99.45;;;;;;2669022;76;20415;-88
2023/03/23 15:00:09;;;;;;;;;;;19.68;99.09;;;;;;2669325;76;20360;-88
2023/03/23 15:03:32;;;;;;;;;;;19.84;98.91;;;;;;2668540;76;20474;-87
2023/03/23 15:07:00;;;;;;;;;;;20.00;98.90;;;;;;2667669;76;20453;-88
2023/03/23 15:10:28;;;;;;;;;;;19.68;99.06;;;;;;2668166;76;20711;-89
2023/03/23 15:17:46;;;;;;;;;;;19.41;100.09;;;;;;2669851;76;20482;-91
2023/03/23 15:21:21;;;;;;;;;;;18.87;100.38;;;;;;2669465;76;20363;-90
2023/03/23 15:25:10;;;;;;;;;;;18.76;101.09;;;;;;2669166;76;20965;-89
2023/03/23 15:28:43;;;;;;;;;;;18.81;101.33;;;;;;2668990;76;20369;-88
2023/03/23 15:32:11;;;;;;;;;;;18.87;101.19;;;;;;2669767;76;20380;-90
2023/03/23 15:35:47;;;;;;;;;;;18.58;101.61;;;;;;2669810;76;20442;-91
2023/03/23 15:39:18;;;;;;;;;;;18.37;102.25;;;;;;2670775;76;20455;-88
2023/03/23 15:42:46;;;;;;;;;;;18.27;102.20;;;;;;2669373;76;20488;-88
2023/03/23 15:46:15;;;;;;;;;;;18.00;102.96;;;;;;2668423;76;20480;-89
2023/03/23 15:49:43;;;;;;;;;;;17.96;103.99;;;;;;2669047;76;21025;-87
2023/03/23 15:53:11;;;;;;;;;;;17.76;104.89;;;;;;2668593;76;20468;-89
2023/03/23 15:56:40;;;;;;;;;;;17.73;105.06;;;;;;2669407;76;20440;-89
2023/03/23 16:00:08;;;;;;;;;;;17.67;105.05;;;;;;2669998;76;20770;-89
2023/03/23 16:03:37;;;;;;;;;;;17.61;105.51;;;;;;2670173;76;20513;-88
2023/03/23 16:07:12;;;;;;;;;;;17.49;106.46;;;;;;2669066;76;20904;-92
2023/03/23 16:10:35;;;;;;;;;;;17.41;106.84;;;;;;2669216;76;20454;-87
2023/03/23 16:14:03;;;;;;;;;;;17.15;108.31;;;;;;2669062;76;20425;-87
2023/03/23 16:17:32;;;;;;;;;;;16.85;109.52;;;;;;2669284;76;20425;-87
2023/03/23 16:21:00;;;;;;;;;;;16.87;109.64;;;;;;2669818;76;20467;-87
2023/03/23 16:24:28;;;;;;;;;;;16.79;109.90;;;;;;2670280;76;20698;-87
2023/03/23 16:27:56;;;;;;;;;;;16.80;110.65;;;;;;2669459;76;20469;-87
2023/03/23 16:31:24;;;;;;;;;;;16.72;111.03;;;;;;2669093;76;20508;-87
2023/03/23 16:34:53;;;;;;;;;;;16.66;111.22;;;;;;2668823;76;20948;-87
2023/03/23 16:38:21;;;;;;;;;;;16.57;111.58;;;;;;2669941;76;20474;-87
2023/03/23 16:41:49;;;;;;;;;;;16.70;111.44;;;;;;2670398;76;20426;-87
2023/03/23 16:45:19;;;;;;;;;;;16.70;111.23;;;;;;2670068;76;20528;-87
2023/03/23 16:48:47;;;;;;;;;;;16.78;111.29;;;;;;2668549;76;20917;-87
2023/03/23 16:52:15;;;;;;;;;;;16.82;111.29;;;;;;2669960;76;20473;-87
2023/03/23 16:55:46;;;;;;;;;;;16.65;111.31;;;;;;2670604;76;20418;-87
2023/03/23 16:59:13;;;;;;;;;;;16.69;111.68;;;;;;2669339;76;20337;-86
2023/03/23 17:02:43;;;;;;;;;;;16.55;111.84;;;;;;2668677;76;20477;-86
2023/03/23 17:06:11;;;;;;;;;;;16.41;112.16;;;;;;2669610;76;20439;-87
2023/03/23 17:09:39;;;;;;;;;;;16.55;111.77;;;;;;2669856;76;20527;-86
2023/03/23 17:13:07;;;;;;;;;;;16.58;111.37;;;;;;2668676;76;20456;-87
2023/03/23 17:16:36;;;;;;;;;;;16.51;111.20;;;;;;2669164;76;20416;-87
2023/03/23 17:20:04;;;;;;;;;;;16.41;111.30;;;;;;2668417;76;20302;-87
2023/03/23 17:23:32;;;;;;;;;;;16.28;111.43;;;;;;2670640;76;20467;-87
2023/03/23 17:27:00;;;;;;;;;;;16.18;112.16;;;;;;2669790;76;20338;-87
2023/03/23 17:30:28;;;;;;;;;;;16.13;112.19;;;;;;2669806;76;20413;-87
2023/03/23 17:33:56;;;;;;;;;;;16.04;112.48;;;;;;2670755;76;20354;-87
2023/03/23 17:37:24;;;;;;;;;;;16.01;112.48;;;;;;2670904;76;20796;-87
2023/03/23 17:40:52;;;;;;;;;;;15.96;112.96;;;;;;2670182;76;20314;-87
2023/03/23 17:44:21;;;;;;;;;;;15.82;113.76;;;;;;2670863;76;20429;-88
2023/03/23 17:47:49;;;;;;;;;;;15.70;114.21;;;;;;2670507;76;20326;-87
2023/03/23 17:51:17;;;;;;;;;;;15.67;114.68;;;;;;2672814;76;20427;-87
2023/03/23 17:54:46;;;;;;;;;;;15.66;114.97;;;;;;2671518;76;20821;-87
2023/03/23 17:58:15;;;;;;;;;;;15.60;115.05;;;;;;2670429;76;20448;-87
2023/03/23 18:01:43;;;;;;;;;;;15.59;114.92;;;;;;2671651;76;20323;-87
2023/03/23 18:05:14;;;;;;;;;;;15.52;115.12;;;;;;2669675;76;20437;-87
2023/03/23 18:08:42;;;;;;;;;;;15.47;114.85;;;;;;2670465;76;21000;-87
2023/03/23 18:12:11;;;;;;;;;;;15.49;114.60;;;;;;2670658;76;20457;-87
2023/03/23 18:15:39;;;;;;;;;;;15.38;115.01;;;;;;2671415;76;20463;-86
2023/03/23 18:19:07;;;;;;;;;;;15.31;115.33;;;;;;2670097;76;20907;-86
2023/03/23 18:22:35;;;;;;;;;;;15.32;115.26;;;;;;2670103;76;20452;-87
2023/03/23 18:26:03;;;;;;;;;;;15.34;115.15;;;;;;2670995;76;20458;-86
2023/03/23 18:29:31;;;;;;;;;;;15.38;115.26;;;;;;2670629;76;20492;-87
2023/03/23 18:33:00;;;;;;;;;;;15.36;115.14;;;;;;2670187;76;20461;-87
2023/03/23 18:36:28;;;;;;;;;;;15.31;115.16;;;;;;2671171;76;20518;-87
2023/03/23 18:39:56;;;;;;;;;;;15.40;115.07;;;;;;2669333;76;20428;-87
2023/03/23 18:43:24;;;;;;;;;;;15.38;115.56;;;;;;2670730;76;20473;-87
2023/03/23 18:46:52;;;;;;;;;;;15.54;115.02;;;;;;2670639;76;20468;-87
2023/03/23 18:50:20;;;;;;;;;;;15.55;114.86;;;;;;2669741;76;20444;-87
2023/03/23 18:53:48;;;;;;;;;;;15.56;114.82;;;;;;2671116;76;20438;-87
2023/03/23 18:57:17;;;;;;;;;;;15.56;114.90;;;;;;2669555;76;20970;-86
2023/03/23 19:00:48;;;;;;;;;;;15.58;114.83;;;;;;2670482;76;20967;-87
2023/03/23 19:04:21;;;;;;;;;;;15.60;114.88;;;;;;2670580;76;20921;-88
2023/03/23 19:07:52;;;;;;;;;;;15.59;114.94;;;;;;2670367;76;20948;-87
2023/03/23 19:11:19;;;;;;;;;;;15.60;114.99;;;;;;2669738;76;20462;-87
2023/03/23 19:14:47;;;;;;;;;;;15.57;115.08;;;;;;2670527;76;20463;-87
2023/03/23 19:18:15;;;;;;;;;;;15.57;115.13;;;;;;2670223;76;20458;-87
2023/03/23 19:21:44;;;;;;;;;;;15.55;115.17;;;;;;2670135;76;20910;-87
2023/03/23 19:25:12;;;;;;;;;;;15.55;115.12;;;;;;2667709;76;20434;-87
2023/03/23 19:28:43;;;;;;;;;;;15.52;115.08;;;;;;2667710;76;20455;-87
2023/03/23 19:32:11;;;;;;;;;;;15.49;115.08;;;;;;2666798;76;20963;-87
2023/03/23 19:35:39;;;;;;;;;;;15.49;115.07;;;;;;2667065;76;20481;-87
2023/03/23 19:39:08;;;;;;;;;;;15.45;115.28;;;;;;2667240;76;20478;-87
2023/03/23 19:42:36;;;;;;;;;;;15.44;115.28;;;;;;2668248;76;20430;-87
2023/03/23 19:46:04;;;;;;;;;;;15.39;115.28;;;;;;2669244;76;20447;-86
2023/03/23 19:49:35;;;;;;;;;;;15.37;115.36;;;;;;2667912;76;20450;-87
2023/03/23 19:53:04;;;;;;;;;;;15.38;115.36;;;;;;2668612;76;20426;-86
2023/03/23 19:56:33;;;;;;;;;;;15.37;115.41;;;;;;2668117;76;20419;-87
2023/03/23 20:00:01;;;;;;;;;;;15.36;115.63;;;;;;2668117;76;20419;-86
2023/03/23 20:03:29;;;;;;;;;;;15.33;115.82;;;;;;2668348;76;20466;-87
2023/03/23 20:06:57;;;;;;;;;;;15.27;115.99;;;;;;2668493;76;20416;-87
2023/03/23 20:10:26;;;;;;;;;;;15.22;116.03;;;;;;2668491;76;20431;-87
2023/03/23 20:13:54;;;;;;;;;;;15.17;116.15;;;;;;2668266;76;21038;-87